createdAt,value
2022-09-15T04:01:19.754Z,60.07
2022-09-15T04:03:51.388Z,60.16
2022-09-15T04:06:22.422Z,60.17
2022-09-15T04:08:53.019Z,60.09
2022-09-15T04:11:23.265Z,59.90
2022-09-15T04:13:53.893Z,60.16
2022-09-15T04:16:25.232Z,59.92
2022-09-15T04:18:55.704Z,60.14
2022-09-15T04:21:27.284Z,60.15
2022-09-15T04:23:56.710Z,60.09
2022-09-15T04:26:33.544Z,59.90
2022-09-15T04:29:05.091Z,60.18
2022-09-15T04:31:34.964Z,60.04
2022-09-15T04:34:05.070Z,60.18
2022-09-15T04:36:34.031Z,60.21
2022-09-15T04:39:03.133Z,60.18
2022-09-15T04:41:34.194Z,60.17
2022-09-15T04:44:03.728Z,60.15
2022-09-15T04:46:33.040Z,60.22
2022-09-15T04:49:02.436Z,60.19
2022-09-15T04:51:32.110Z,60.26
2022-09-15T04:54:01.910Z,60.24
2022-09-15T04:56:31.424Z,60.39
2022-09-15T04:59:03.873Z,60.38
2022-09-15T05:01:35.631Z,60.28
2022-09-15T05:04:05.171Z,60.29
2022-09-15T05:06:36.686Z,60.53
2022-09-15T05:09:10.488Z,60.54
2022-09-15T05:11:40.898Z,60.48
2022-09-15T05:14:12.052Z,60.59
2022-09-15T05:16:41.169Z,60.62
2022-09-15T05:19:11.199Z,60.57
2022-09-15T05:21:40.922Z,60.52
2022-09-15T05:24:11.204Z,60.45
2022-09-15T05:26:40.036Z,60.41
2022-09-15T05:29:09.155Z,60.49
2022-09-15T05:31:38.305Z,60.59
2022-09-15T05:34:07.882Z,60.65
2022-09-15T05:36:36.406Z,60.63
2022-09-15T05:39:05.719Z,60.68
2022-09-15T05:41:35.121Z,60.61
2022-09-15T05:44:04.407Z,60.66
2022-09-15T05:46:33.540Z,60.62
2022-09-15T05:49:02.868Z,60.78
2022-09-15T05:51:32.155Z,60.73
2022-09-15T05:54:01.439Z,60.69
2022-09-15T05:56:30.037Z,60.62
2022-09-15T05:58:59.033Z,60.63
2022-09-15T06:01:30.524Z,60.60
2022-09-15T06:03:59.941Z,60.67
2022-09-15T06:06:32.452Z,60.74
2022-09-15T06:09:02.325Z,60.68
2022-09-15T06:11:34.489Z,60.71
2022-09-15T06:14:05.294Z,60.76
2022-09-15T06:16:36.074Z,60.64
2022-09-15T06:19:05.715Z,60.75
2022-09-15T06:21:35.800Z,60.59
2022-09-15T06:24:06.837Z,60.62
2022-09-15T06:26:36.245Z,60.58
2022-09-15T06:29:06.387Z,60.62
2022-09-15T06:31:37.267Z,60.59
2022-09-15T06:36:54.435Z,60.29
2022-09-15T06:39:23.547Z,60.25
2022-09-15T06:42:02.389Z,60.24
2022-09-15T06:44:33.012Z,60.20
2022-09-15T06:47:03.036Z,60.09
2022-09-15T06:49:32.189Z,59.97
2022-09-15T06:52:03.114Z,60.09
2022-09-15T06:54:32.503Z,59.83
2022-09-15T06:57:01.460Z,59.84
2022-09-15T06:59:30.725Z,59.83
2022-09-15T07:02:07.530Z,59.69
2022-09-15T07:04:40.344Z,59.97
2022-09-15T07:07:09.112Z,59.93
2022-09-15T07:09:41.174Z,59.77
2022-09-15T07:12:10.416Z,59.78
2022-09-15T07:14:38.998Z,59.63
2022-09-15T07:17:08.052Z,59.80
2022-09-15T07:19:37.357Z,59.61
2022-09-15T07:22:06.309Z,59.78
2022-09-15T07:24:34.819Z,59.71
2022-09-15T07:27:04.014Z,59.73
2022-09-15T07:29:37.601Z,59.68
2022-09-15T07:32:06.663Z,59.52
2022-09-15T07:34:36.033Z,59.53
2022-09-15T07:37:05.362Z,59.33
2022-09-15T07:39:34.421Z,59.34
2022-09-15T07:42:02.971Z,59.15
2022-09-15T07:44:33.746Z,59.15
2022-09-15T07:47:02.705Z,59.14
2022-09-15T07:49:31.934Z,59.14
2022-09-15T07:52:01.142Z,58.88
2022-09-15T07:54:30.017Z,58.86
2022-09-15T07:56:59.133Z,58.85
2022-09-15T07:59:28.312Z,58.96
2022-09-15T08:01:57.564Z,58.78
2022-09-15T08:04:26.187Z,58.85
2022-09-15T08:06:55.074Z,58.80
2022-09-15T08:09:24.270Z,58.74
2022-09-15T08:11:53.215Z,58.63
2022-09-15T08:14:22.389Z,58.55
2022-09-15T08:16:51.040Z,58.49
2022-09-15T08:19:22.358Z,58.50
2022-09-15T08:21:51.480Z,58.35
2022-09-15T08:24:20.776Z,58.31
2022-09-15T08:26:52.088Z,58.33
2022-09-15T08:29:21.151Z,58.20
2022-09-15T08:31:50.144Z,58.05
2022-09-15T08:34:18.854Z,57.97
2022-09-15T08:36:47.975Z,58.03
2022-09-15T08:39:17.251Z,57.95
2022-09-15T08:41:49.155Z,57.96
2022-09-15T08:44:38.076Z,57.68
2022-09-15T08:47:19.522Z,57.68
2022-09-15T08:50:23.697Z,57.55
2022-09-15T08:53:17.850Z,57.60
2022-09-15T08:55:53.408Z,57.45
2022-09-15T08:58:26.815Z,57.24
2022-09-15T09:00:58.269Z,57.23
2022-09-15T09:03:33.226Z,57.17
2022-09-15T09:06:08.554Z,57.19
2022-09-15T09:09:01.908Z,56.89
2022-09-15T09:11:57.595Z,56.58
2022-09-15T09:14:37.985Z,56.45
2022-09-15T09:17:16.586Z,56.48
2022-09-15T09:20:13.164Z,56.39
2022-09-15T09:22:47.419Z,56.47
2022-09-15T09:25:27.587Z,56.35
2022-09-15T09:27:59.234Z,56.18
2022-09-15T09:30:31.991Z,56.00
2022-09-15T09:33:16.220Z,55.91
2022-09-15T09:35:49.295Z,55.73
2022-09-15T09:38:35.843Z,55.76
2022-09-15T09:41:18.399Z,55.72
2022-09-15T09:43:49.566Z,55.45
2022-09-15T09:46:21.793Z,55.52
2022-09-15T09:49:03.584Z,55.38
2022-09-15T09:51:54.580Z,55.21
2022-09-15T09:54:27.782Z,55.06
2022-09-15T09:57:18.475Z,54.75
2022-09-15T09:59:50.130Z,54.70
2022-09-15T10:02:29.722Z,54.52
2022-09-15T10:05:06.336Z,54.57
2022-09-15T10:07:41.310Z,54.50
2022-09-15T10:10:22.681Z,54.26
2022-09-15T10:12:57.309Z,54.25
2022-09-15T10:15:29.685Z,54.18
2022-09-15T10:17:59.173Z,54.05
2022-09-15T10:20:33.307Z,53.82
2022-09-15T10:23:23.246Z,53.75
2022-09-15T10:26:00.108Z,53.50
2022-09-15T10:28:30.350Z,53.41
2022-09-15T10:31:08.050Z,53.25
2022-09-15T10:33:40.556Z,53.21
2022-09-15T10:36:30.812Z,52.99
2022-09-15T10:39:49.402Z,52.92
2022-09-15T10:42:32.486Z,52.89
2022-09-15T10:45:23.083Z,52.98
2022-09-15T10:48:15.728Z,52.83
2022-09-15T10:50:55.458Z,52.54
2022-09-15T10:53:24.444Z,52.21
2022-09-15T10:56:02.947Z,52.02
2022-09-15T10:58:56.039Z,51.99
2022-09-15T11:01:31.307Z,52.01
2022-09-15T11:04:22.020Z,51.93
2022-09-15T11:07:29.061Z,51.80
2022-09-15T11:10:12.609Z,51.66
2022-09-15T11:12:58.767Z,51.58
2022-09-15T11:15:42.895Z,51.44
2022-09-15T11:18:24.090Z,51.26
2022-09-15T11:21:18.541Z,51.40
2022-09-15T11:23:50.012Z,51.12
2022-09-15T11:26:28.316Z,51.22
2022-09-15T11:29:04.944Z,51.07
2022-09-15T11:31:43.490Z,51.02
2022-09-15T11:34:24.322Z,50.86
2022-09-15T11:37:10.597Z,50.80
2022-09-15T11:39:50.375Z,50.68
2022-09-15T11:42:35.469Z,50.50
2022-09-15T11:45:07.233Z,50.69
2022-09-15T11:47:45.770Z,50.62
2022-09-15T11:50:33.755Z,50.39
2022-09-15T11:53:12.382Z,50.33
2022-09-15T11:55:41.477Z,50.19
2022-09-15T11:58:11.274Z,50.11
2022-09-15T12:00:51.597Z,49.75
2022-09-15T12:03:50.860Z,49.80
2022-09-15T12:06:58.046Z,49.77
2022-09-15T12:09:27.822Z,49.64
2022-09-15T12:12:06.331Z,49.73
2022-09-15T12:14:39.197Z,49.60
2022-09-15T12:17:16.743Z,49.54
2022-09-15T12:19:57.045Z,49.52
2022-09-15T12:22:32.530Z,49.59
2022-09-15T12:25:43.027Z,49.51
2022-09-15T12:28:24.675Z,49.40
2022-09-15T12:31:15.624Z,49.47
2022-09-15T12:33:44.163Z,49.45
2022-09-15T12:36:38.089Z,49.44
2022-09-15T12:39:21.131Z,49.37
2022-09-15T12:41:55.878Z,49.35
2022-09-15T12:44:33.881Z,49.32
2022-09-15T12:47:06.195Z,49.26
2022-09-15T12:49:44.054Z,49.18
2022-09-15T12:52:14.842Z,49.16
2022-09-15T12:54:45.798Z,49.08
2022-09-15T12:57:34.198Z,48.98
2022-09-15T13:00:23.206Z,48.78
2022-09-15T13:02:53.196Z,48.87
2022-09-15T13:05:49.248Z,48.84
2022-09-15T13:08:30.184Z,48.70
2022-09-15T13:11:05.126Z,48.63
2022-09-15T13:13:44.198Z,48.52
2022-09-15T13:16:22.502Z,48.54
2022-09-15T13:19:05.874Z,48.41
2022-09-15T13:21:38.063Z,48.51
2022-09-15T13:24:15.293Z,48.56
2022-09-15T13:26:48.125Z,48.51
2022-09-15T13:29:19.278Z,48.51
2022-09-15T13:32:02.998Z,48.47
2022-09-15T13:35:14.083Z,48.45
2022-09-15T13:38:12.208Z,48.52
2022-09-15T13:40:58.717Z,48.56
2022-09-15T13:44:01.891Z,48.37
2022-09-15T13:46:39.758Z,48.46
2022-09-15T13:49:11.001Z,48.55
2022-09-15T13:51:44.508Z,48.61
2022-09-15T13:54:19.662Z,48.61
2022-09-15T13:56:53.759Z,48.53
2022-09-15T13:59:28.308Z,48.53
2022-09-15T14:01:59.798Z,48.41
2022-09-15T14:04:32.488Z,48.26
2022-09-15T14:07:02.831Z,48.13
2022-09-15T14:09:47.965Z,47.91
2022-09-15T14:12:19.524Z,47.94
2022-09-15T14:14:54.951Z,47.79
2022-09-15T14:17:28.312Z,47.85
2022-09-15T14:20:02.323Z,47.71
2022-09-15T14:22:36.173Z,47.58
2022-09-15T14:25:11.966Z,47.58
2022-09-15T14:27:46.343Z,47.34
2022-09-15T14:30:36.372Z,47.44
2022-09-15T14:33:05.606Z,47.45
2022-09-15T14:35:37.584Z,47.45
2022-09-15T14:38:06.250Z,47.44
2022-09-15T14:40:38.338Z,47.48
2022-09-15T14:43:31.436Z,47.48
2022-09-15T14:46:15.409Z,47.48
2022-09-15T14:48:44.569Z,47.30
2022-09-15T14:51:26.542Z,47.45
2022-09-15T14:54:00.621Z,47.25
2022-09-15T14:56:35.720Z,47.43
2022-09-15T14:59:09.696Z,47.34
2022-09-15T15:02:18.771Z,47.46
2022-09-15T15:04:57.904Z,47.50
2022-09-15T15:07:32.390Z,47.40
2022-09-15T15:10:18.856Z,47.31
2022-09-15T15:12:51.566Z,47.24
2022-09-15T15:15:20.658Z,46.97
2022-09-15T15:17:55.135Z,47.02
2022-09-15T15:20:31.086Z,46.96
2022-09-15T15:23:10.683Z,46.93
2022-09-15T15:25:40.204Z,46.92
2022-09-15T15:28:36.147Z,47.08
2022-09-15T15:31:14.048Z,47.07
2022-09-15T15:34:06.164Z,47.17
2022-09-15T15:36:36.978Z,46.94
2022-09-15T15:39:08.605Z,47.24
2022-09-15T15:41:41.915Z,47.17
2022-09-15T15:44:17.633Z,47.06
2022-09-15T15:46:56.435Z,47.20
2022-09-15T15:49:29.676Z,47.22
2022-09-15T15:52:00.847Z,47.17
2022-09-15T15:54:30.125Z,47.16
2022-09-15T15:57:22.122Z,47.22
2022-09-15T15:59:58.865Z,47.02
2022-09-15T16:02:28.759Z,46.90
2022-09-15T16:04:58.315Z,46.93
2022-09-15T16:07:32.494Z,47.00
2022-09-15T16:10:03.956Z,46.85
2022-09-15T16:12:35.340Z,46.85
2022-09-15T16:15:15.452Z,46.81
2022-09-15T16:17:46.933Z,47.01
2022-09-15T16:20:17.832Z,47.06
2022-09-15T16:22:47.039Z,47.29
2022-09-15T16:25:33.603Z,47.43
2022-09-15T16:28:04.607Z,47.57
2022-09-15T16:30:35.097Z,47.59
2022-09-15T16:33:04.189Z,47.78
2022-09-15T16:35:50.268Z,47.73
2022-09-15T16:38:20.794Z,47.85
2022-09-15T16:40:51.525Z,47.92
2022-09-15T16:43:22.857Z,47.87
2022-09-15T16:45:53.223Z,47.97
2022-09-15T16:48:21.939Z,47.86
2022-09-15T16:51:16.887Z,48.07
2022-09-15T16:53:41.456Z,48.14
2022-09-15T16:56:13.015Z,48.12
2022-09-15T16:58:43.731Z,48.26
2022-09-15T17:01:21.889Z,48.25
2022-09-15T17:03:51.724Z,48.26
2022-09-15T17:06:22.516Z,48.45
2022-09-15T17:08:51.902Z,48.41
2022-09-15T17:11:24.162Z,48.50
2022-09-15T17:13:53.645Z,48.52
2022-09-15T17:16:22.714Z,48.61
2022-09-15T17:18:51.728Z,48.53
2022-09-15T17:21:20.674Z,48.43
2022-09-15T17:23:50.873Z,48.44
2022-09-15T17:26:30.470Z,48.47
2022-09-15T17:29:00.897Z,48.55
2022-09-15T17:31:30.032Z,48.69
2022-09-15T17:33:59.067Z,48.60
2022-09-15T17:36:27.729Z,48.77
2022-09-15T17:38:56.951Z,48.89
2022-09-15T17:41:26.054Z,48.77
2022-09-15T17:43:55.082Z,49.18
2022-09-15T17:46:24.287Z,49.24
2022-09-15T17:48:53.370Z,49.09
2022-09-15T17:51:22.432Z,49.16
2022-09-15T17:53:51.309Z,49.20
2022-09-15T17:56:20.138Z,49.14
2022-09-15T17:58:48.848Z,49.38
2022-09-15T18:01:18.039Z,49.21
2022-09-15T18:03:47.207Z,49.36
2022-09-15T18:06:15.714Z,49.54
2022-09-15T18:08:45.314Z,49.67
2022-09-15T18:11:15.750Z,49.70
2022-09-15T18:13:44.554Z,49.58
2022-09-15T18:16:15.273Z,49.66
2022-09-15T18:18:44.539Z,49.69
2022-09-15T18:21:28.183Z,49.71
2022-09-15T18:23:57.303Z,49.86
2022-09-15T18:26:26.805Z,49.85
2022-09-15T18:28:57.087Z,49.89
2022-09-15T18:31:26.863Z,49.91
2022-09-15T18:33:55.576Z,49.87
2022-09-15T18:36:25.086Z,49.91
2022-09-15T18:38:53.552Z,49.94
2022-09-15T18:41:22.408Z,49.86
2022-09-15T18:43:56.864Z,49.97
2022-09-15T18:46:27.841Z,50.03
2022-09-15T18:48:56.313Z,50.02
2022-09-15T18:51:40.875Z,49.98
2022-09-15T18:54:14.147Z,49.98
2022-09-15T18:56:43.312Z,49.97
2022-09-15T18:59:15.542Z,50.00
2022-09-15T19:01:46.712Z,49.87
2022-09-15T19:04:15.975Z,50.00
2022-09-15T19:06:45.937Z,49.94
2022-09-15T19:09:15.427Z,50.04
2022-09-15T19:11:44.405Z,50.05
2022-09-15T19:14:13.156Z,50.19
2022-09-15T19:16:57.175Z,50.00
2022-09-15T19:19:27.294Z,50.10
2022-09-15T19:21:56.546Z,50.07
2022-09-15T19:24:30.951Z,50.21
2022-09-15T19:27:00.860Z,50.16
2022-09-15T19:29:34.934Z,50.21
2022-09-15T19:32:07.075Z,50.26
2022-09-15T19:34:36.259Z,50.38
2022-09-15T19:37:10.797Z,50.40
2022-09-15T19:39:42.210Z,50.44
2022-09-15T19:42:12.320Z,50.40
2022-09-15T19:44:42.164Z,50.63
2022-09-15T19:47:11.349Z,50.50
2022-09-15T19:49:39.937Z,50.66
2022-09-15T19:52:09.180Z,50.76
2022-09-15T19:54:37.780Z,50.84
2022-09-15T19:57:06.229Z,50.83
2022-09-15T19:59:35.146Z,50.96
2022-09-15T20:02:03.683Z,50.96
2022-09-15T20:07:20.832Z,51.02
2022-09-15T20:09:53.608Z,50.94
2022-09-15T20:12:22.154Z,51.03
2022-09-15T20:14:50.997Z,51.08
2022-09-15T20:17:20.041Z,51.20
2022-09-15T20:19:48.749Z,51.35
2022-09-15T20:22:17.362Z,51.04
2022-09-15T20:24:46.423Z,51.04
2022-09-15T20:27:15.312Z,51.02
2022-09-15T20:29:44.707Z,51.20
2022-09-15T20:32:13.229Z,51.41
2022-09-15T20:34:42.340Z,51.14
2022-09-15T20:37:11.743Z,51.28
2022-09-15T20:39:42.130Z,51.31
2022-09-15T20:42:10.933Z,51.42
2022-09-15T20:44:39.462Z,51.33
2022-09-15T20:47:08.267Z,51.48
2022-09-15T20:49:37.791Z,51.42
2022-09-15T20:52:06.687Z,51.52
2022-09-15T20:54:35.688Z,51.64
2022-09-15T20:57:04.872Z,51.51
2022-09-15T20:59:33.284Z,51.66
2022-09-15T21:02:05.514Z,51.66
2022-09-15T21:04:34.133Z,51.70
2022-09-15T21:07:03.483Z,51.72
2022-09-15T21:09:32.120Z,51.76
2022-09-15T21:12:01.135Z,51.84
2022-09-15T21:14:31.143Z,51.79
2022-09-15T21:17:00.488Z,51.82
2022-09-15T21:19:29.899Z,51.90
2022-09-15T21:21:59.187Z,51.88
2022-09-15T21:24:28.233Z,51.98
2022-09-15T21:27:16.361Z,52.14
2022-09-15T21:29:45.899Z,52.08
2022-09-15T21:32:14.770Z,52.23
2022-09-15T21:34:44.226Z,52.05
2022-09-15T21:37:13.272Z,52.17
2022-09-15T21:39:41.659Z,52.12
2022-09-15T21:42:13.578Z,52.27
2022-09-15T21:44:43.107Z,52.17
2022-09-15T21:47:12.147Z,52.33
2022-09-15T21:49:41.053Z,52.27
2022-09-15T21:52:09.875Z,52.37
2022-09-15T21:54:39.804Z,52.31
2022-09-15T21:57:08.907Z,52.35
2022-09-15T21:59:38.072Z,52.27
2022-09-15T22:02:07.572Z,52.42
2022-09-15T22:04:36.322Z,52.50
2022-09-15T22:07:06.287Z,52.62
2022-09-15T22:09:35.276Z,52.70
2022-09-15T22:12:04.518Z,52.81
2022-09-15T22:14:32.962Z,52.92
2022-09-15T22:17:02.095Z,53.02
2022-09-15T22:19:31.352Z,53.12
2022-09-15T22:22:00.973Z,53.29
2022-09-15T22:24:30.694Z,53.26
2022-09-15T22:26:59.728Z,53.44
2022-09-15T22:29:29.792Z,53.44
2022-09-15T22:31:58.239Z,53.53
2022-09-15T22:34:29.462Z,53.57
2022-09-15T22:36:58.424Z,53.54
2022-09-15T22:39:50.263Z,53.51
2022-09-15T22:42:17.188Z,53.67
2022-09-15T22:44:47.413Z,53.69
2022-09-15T22:47:17.276Z,53.87
2022-09-15T22:49:46.788Z,53.79
2022-09-15T22:52:16.035Z,53.84
2022-09-15T22:54:46.551Z,53.91
2022-09-15T22:57:15.688Z,53.95
2022-09-15T22:59:45.078Z,53.87
